sensor_id;sensor_type;location;lat;lon;timestamp;P1;durP1;ratioP1;P2;durP2;ratioP2
30335;SDS011;17142;47.990;7.846;2024-02-26T00:01:48;0.80;;;0.80;;
30335;SDS011;17142;47.990;7.846;2024-02-26T00:04:14;0.97;;;0.67;;
30335;SDS011;17142;47.990;7.846;2024-02-26T00:06:40;0.60;;;0.50;;
30335;SDS011;17142;47.990;7.846;2024-02-26T00:09:06;1.27;;;0.47;;
30335;SDS011;17142;47.990;7.846;2024-02-26T00:11:35;1.07;;;0.53;;
30335;SDS011;17142;47.990;7.846;2024-02-26T00:14:02;0.93;;;0.50;;
30335;SDS011;17142;47.990;7.846;2024-02-26T00:16:30;0.70;;;0.70;;
30335;SDS011;17142;47.990;7.846;2024-02-26T00:18:56;0.93;;;0.63;;
30335;SDS011;17142;47.990;7.846;2024-02-26T00:21:21;0.70;;;0.60;;
30335;SDS011;17142;47.990;7.846;2024-02-26T00:23:49;4.20;;;1.47;;
30335;SDS011;17142;47.990;7.846;2024-02-26T00:26:18;0.80;;;0.60;;
30335;SDS011;17142;47.990;7.846;2024-02-26T00:28:43;0.70;;;0.67;;
30335;SDS011;17142;47.990;7.846;2024-02-26T00:31:09;0.80;;;0.80;;
30335;SDS011;17142;47.990;7.846;2024-02-26T00:33:39;1.00;;;0.90;;
30335;SDS011;17142;47.990;7.846;2024-02-26T00:36:05;0.50;;;0.40;;
30335;SDS011;17142;47.990;7.846;2024-02-26T00:38:31;1.47;;;0.60;;
30335;SDS011;17142;47.990;7.846;2024-02-26T00:40:57;0.60;;;0.40;;
30335;SDS011;17142;47.990;7.846;2024-02-26T00:43:24;1.63;;;0.87;;
30335;SDS011;17142;47.990;7.846;2024-02-26T00:45:52;0.40;;;0.40;;
30335;SDS011;17142;47.990;7.846;2024-02-26T00:48:18;0.80;;;0.70;;
30335;SDS011;17142;47.990;7.846;2024-02-26T00:50:46;0.80;;;0.60;;
30335;SDS011;17142;47.990;7.846;2024-02-26T00:53:12;1.27;;;0.87;;
30335;SDS011;17142;47.990;7.846;2024-02-26T00:55:37;0.70;;;0.50;;
30335;SDS011;17142;47.990;7.846;2024-02-26T00:58:03;0.80;;;0.50;;
30335;SDS011;17142;47.990;7.846;2024-02-26T01:00:29;0.50;;;0.50;;
30335;SDS011;17142;47.990;7.846;2024-02-26T01:02:56;1.97;;;0.67;;
30335;SDS011;17142;47.990;7.846;2024-02-26T01:05:23;0.40;;;0.40;;
30335;SDS011;17142;47.990;7.846;2024-02-26T01:07:48;2.67;;;0.90;;
30335;SDS011;17142;47.990;7.846;2024-02-26T01:10:16;1.13;;;0.80;;
30335;SDS011;17142;47.990;7.846;2024-02-26T01:12:42;1.13;;;0.60;;
30335;SDS011;17142;47.990;7.846;2024-02-26T01:15:08;0.93;;;0.60;;
30335;SDS011;17142;47.990;7.846;2024-02-26T01:17:33;0.93;;;0.70;;
30335;SDS011;17142;47.990;7.846;2024-02-26T01:19:59;1.83;;;0.60;;
30335;SDS011;17142;47.990;7.846;2024-02-26T01:22:25;0.50;;;0.40;;
30335;SDS011;17142;47.990;7.846;2024-02-26T01:24:50;2.00;;;0.63;;
30335;SDS011;17142;47.990;7.846;2024-02-26T01:27:16;0.40;;;0.40;;
30335;SDS011;17142;47.990;7.846;2024-02-26T01:29:44;0.50;;;0.50;;
30335;SDS011;17142;47.990;7.846;2024-02-26T01:32:12;1.20;;;0.50;;
30335;SDS011;17142;47.990;7.846;2024-02-26T01:34:38;0.50;;;0.40;;
30335;SDS011;17142;47.990;7.846;2024-02-26T01:37:06;0.50;;;0.50;;
30335;SDS011;17142;47.990;7.846;2024-02-26T01:39:31;2.00;;;0.50;;
30335;SDS011;17142;47.990;7.846;2024-02-26T01:41:57;0.40;;;0.40;;
30335;SDS011;17142;47.990;7.846;2024-02-26T01:44:23;1.93;;;1.10;;
30335;SDS011;17142;47.990;7.846;2024-02-26T01:46:48;0.73;;;0.50;;
30335;SDS011;17142;47.990;7.846;2024-02-26T01:49:19;0.50;;;0.40;;
30335;SDS011;17142;47.990;7.846;2024-02-26T01:51:49;0.30;;;0.30;;
30335;SDS011;17142;47.990;7.846;2024-02-26T01:54:17;0.43;;;0.43;;
30335;SDS011;17142;47.990;7.846;2024-02-26T01:56:43;0.40;;;0.30;;
30335;SDS011;17142;47.990;7.846;2024-02-26T01:59:14;1.00;;;0.40;;
30335;SDS011;17142;47.990;7.846;2024-02-26T02:01:39;2.50;;;0.60;;
30335;SDS011;17142;47.990;7.846;2024-02-26T02:04:11;0.50;;;0.40;;
30335;SDS011;17142;47.990;7.846;2024-02-26T02:06:37;0.70;;;0.53;;
30335;SDS011;17142;47.990;7.846;2024-02-26T02:09:04;0.60;;;0.50;;
30335;SDS011;17142;47.990;7.846;2024-02-26T02:11:33;1.37;;;0.50;;
30335;SDS011;17142;47.990;7.846;2024-02-26T02:13:59;0.77;;;0.50;;
30335;SDS011;17142;47.990;7.846;2024-02-26T02:16:25;2.30;;;0.80;;
30335;SDS011;17142;47.990;7.846;2024-02-26T02:18:53;0.60;;;0.50;;
30335;SDS011;17142;47.990;7.846;2024-02-26T02:21:19;0.60;;;0.50;;
30335;SDS011;17142;47.990;7.846;2024-02-26T02:23:47;0.53;;;0.40;;
30335;SDS011;17142;47.990;7.846;2024-02-26T02:26:17;0.77;;;0.60;;
30335;SDS011;17142;47.990;7.846;2024-02-26T02:28:46;0.83;;;0.50;;
30335;SDS011;17142;47.990;7.846;2024-02-26T02:31:13;0.90;;;0.50;;
30335;SDS011;17142;47.990;7.846;2024-02-26T02:33:39;0.93;;;0.53;;
30335;SDS011;17142;47.990;7.846;2024-02-26T02:36:07;0.90;;;0.50;;
30335;SDS011;17142;47.990;7.846;2024-02-26T02:38:35;0.53;;;0.40;;
30335;SDS011;17142;47.990;7.846;2024-02-26T02:41:04;0.60;;;0.50;;
30335;SDS011;17142;47.990;7.846;2024-02-26T02:43:30;0.50;;;0.50;;
30335;SDS011;17142;47.990;7.846;2024-02-26T02:45:58;0.93;;;0.50;;
30335;SDS011;17142;47.990;7.846;2024-02-26T02:48:23;0.80;;;0.57;;
30335;SDS011;17142;47.990;7.846;2024-02-26T02:50:49;0.50;;;0.40;;
30335;SDS011;17142;47.990;7.846;2024-02-26T02:53:17;0.80;;;0.50;;
30335;SDS011;17142;47.990;7.846;2024-02-26T02:55:45;0.70;;;0.70;;
30335;SDS011;17142;47.990;7.846;2024-02-26T02:58:11;0.70;;;0.70;;
30335;SDS011;17142;47.990;7.846;2024-02-26T03:00:39;0.80;;;0.80;;
30335;SDS011;17142;47.990;7.846;2024-02-26T03:03:04;1.93;;;1.60;;
30335;SDS011;17142;47.990;7.846;2024-02-26T03:05:30;1.13;;;0.60;;
30335;SDS011;17142;47.990;7.846;2024-02-26T03:07:55;0.60;;;0.50;;
30335;SDS011;17142;47.990;7.846;2024-02-26T03:10:21;0.90;;;0.40;;
30335;SDS011;17142;47.990;7.846;2024-02-26T03:12:47;0.60;;;0.47;;
30335;SDS011;17142;47.990;7.846;2024-02-26T03:15:12;2.10;;;1.17;;
30335;SDS011;17142;47.990;7.846;2024-02-26T03:17:38;0.77;;;0.50;;
30335;SDS011;17142;47.990;7.846;2024-02-26T03:20:06;0.63;;;0.60;;
30335;SDS011;17142;47.990;7.846;2024-02-26T03:22:33;0.87;;;0.87;;
30335;SDS011;17142;47.990;7.846;2024-02-26T03:25:05;1.03;;;0.77;;
30335;SDS011;17142;47.990;7.846;2024-02-26T03:27:31;2.20;;;0.80;;
30335;SDS011;17142;47.990;7.846;2024-02-26T03:29:57;0.70;;;0.60;;
30335;SDS011;17142;47.990;7.846;2024-02-26T03:32:25;0.70;;;0.50;;
30335;SDS011;17142;47.990;7.846;2024-02-26T03:34:53;1.20;;;0.73;;
30335;SDS011;17142;47.990;7.846;2024-02-26T03:37:20;1.23;;;0.60;;
30335;SDS011;17142;47.990;7.846;2024-02-26T03:39:48;0.70;;;0.53;;
30335;SDS011;17142;47.990;7.846;2024-02-26T03:42:16;0.73;;;0.53;;
30335;SDS011;17142;47.990;7.846;2024-02-26T03:44:47;0.60;;;0.60;;
30335;SDS011;17142;47.990;7.846;2024-02-26T03:47:17;1.20;;;0.80;;
30335;SDS011;17142;47.990;7.846;2024-02-26T03:49:43;1.50;;;0.83;;
30335;SDS011;17142;47.990;7.846;2024-02-26T03:52:09;1.20;;;1.10;;
30335;SDS011;17142;47.990;7.846;2024-02-26T03:54:37;1.17;;;0.60;;
30335;SDS011;17142;47.990;7.846;2024-02-26T03:57:03;0.63;;;0.50;;
30335;SDS011;17142;47.990;7.846;2024-02-26T03:59:31;1.17;;;0.60;;
30335;SDS011;17142;47.990;7.846;2024-02-26T04:01:57;0.87;;;0.60;;
30335;SDS011;17142;47.990;7.846;2024-02-26T04:04:23;0.90;;;0.80;;
30335;SDS011;17142;47.990;7.846;2024-02-26T04:06:48;1.13;;;0.60;;
30335;SDS011;17142;47.990;7.846;2024-02-26T04:09:14;2.63;;;0.70;;
30335;SDS011;17142;47.990;7.846;2024-02-26T04:11:39;1.17;;;0.90;;
30335;SDS011;17142;47.990;7.846;2024-02-26T04:14:05;0.70;;;0.70;;
30335;SDS011;17142;47.990;7.846;2024-02-26T04:16:33;0.77;;;0.77;;
30335;SDS011;17142;47.990;7.846;2024-02-26T04:19:01;1.03;;;0.87;;
30335;SDS011;17142;47.990;7.846;2024-02-26T04:21:27;0.63;;;0.63;;
30335;SDS011;17142;47.990;7.846;2024-02-26T04:23:53;1.07;;;0.73;;
30335;SDS011;17142;47.990;7.846;2024-02-26T04:26:21;1.47;;;1.00;;
30335;SDS011;17142;47.990;7.846;2024-02-26T04:28:47;1.30;;;0.80;;
30335;SDS011;17142;47.990;7.846;2024-02-26T04:31:12;0.80;;;0.60;;
30335;SDS011;17142;47.990;7.846;2024-02-26T04:33:38;2.53;;;0.80;;
30335;SDS011;17142;47.990;7.846;2024-02-26T04:36:04;1.20;;;0.70;;
30335;SDS011;17142;47.990;7.846;2024-02-26T04:38:29;1.83;;;0.87;;
30335;SDS011;17142;47.990;7.846;2024-02-26T04:41:00;1.87;;;0.83;;
30335;SDS011;17142;47.990;7.846;2024-02-26T04:43:25;1.30;;;0.80;;
30335;SDS011;17142;47.990;7.846;2024-02-26T04:45:51;0.70;;;0.70;;
30335;SDS011;17142;47.990;7.846;2024-02-26T04:48:17;0.97;;;0.93;;
30335;SDS011;17142;47.990;7.846;2024-02-26T04:50:43;4.23;;;1.00;;
30335;SDS011;17142;47.990;7.846;2024-02-26T04:53:09;1.10;;;0.93;;
30335;SDS011;17142;47.990;7.846;2024-02-26T04:55:34;2.53;;;1.50;;
30335;SDS011;17142;47.990;7.846;2024-02-26T04:58:00;0.67;;;0.60;;
30335;SDS011;17142;47.990;7.846;2024-02-26T05:00:28;5.30;;;1.10;;
30335;SDS011;17142;47.990;7.846;2024-02-26T05:02:54;0.63;;;0.60;;
30335;SDS011;17142;47.990;7.846;2024-02-26T05:05:20;2.20;;;1.10;;
30335;SDS011;17142;47.990;7.846;2024-02-26T05:07:45;0.90;;;0.90;;
30335;SDS011;17142;47.990;7.846;2024-02-26T05:10:13;1.10;;;0.70;;
30335;SDS011;17142;47.990;7.846;2024-02-26T05:12:39;1.03;;;0.87;;
30335;SDS011;17142;47.990;7.846;2024-02-26T05:15:07;1.23;;;1.10;;
30335;SDS011;17142;47.990;7.846;2024-02-26T05:17:45;1.17;;;0.77;;
30335;SDS011;17142;47.990;7.846;2024-02-26T05:20:11;4.87;;;0.80;;
30335;SDS011;17142;47.990;7.846;2024-02-26T05:22:38;1.20;;;0.87;;
30335;SDS011;17142;47.990;7.846;2024-02-26T05:25:07;0.40;;;0.40;;
30335;SDS011;17142;47.990;7.846;2024-02-26T05:27:33;3.70;;;1.57;;
30335;SDS011;17142;47.990;7.846;2024-02-26T05:30:01;1.00;;;0.60;;
30335;SDS011;17142;47.990;7.846;2024-02-26T05:32:27;2.27;;;0.90;;
30335;SDS011;17142;47.990;7.846;2024-02-26T05:34:52;1.00;;;0.80;;
30335;SDS011;17142;47.990;7.846;2024-02-26T05:37:18;0.80;;;0.73;;
30335;SDS011;17142;47.990;7.846;2024-02-26T05:39:46;0.70;;;0.70;;
30335;SDS011;17142;47.990;7.846;2024-02-26T05:42:14;0.70;;;0.70;;
30335;SDS011;17142;47.990;7.846;2024-02-26T05:44:39;0.83;;;0.70;;
30335;SDS011;17142;47.990;7.846;2024-02-26T05:47:05;0.87;;;0.80;;
30335;SDS011;17142;47.990;7.846;2024-02-26T05:49:31;2.60;;;0.60;;
30335;SDS011;17142;47.990;7.846;2024-02-26T05:51:58;1.17;;;0.90;;
30335;SDS011;17142;47.990;7.846;2024-02-26T05:54:24;0.70;;;0.60;;
30335;SDS011;17142;47.990;7.846;2024-02-26T05:56:50;0.97;;;0.60;;
30335;SDS011;17142;47.990;7.846;2024-02-26T05:59:15;0.80;;;0.57;;
30335;SDS011;17142;47.990;7.846;2024-02-26T06:01:41;0.97;;;0.60;;
30335;SDS011;17142;47.990;7.846;2024-02-26T06:04:07;1.70;;;0.70;;
30335;SDS011;17142;47.990;7.846;2024-02-26T06:06:32;0.57;;;0.57;;
30335;SDS011;17142;47.990;7.846;2024-02-26T06:08:58;1.57;;;0.67;;
30335;SDS011;17142;47.990;7.846;2024-02-26T06:11:24;0.77;;;0.77;;
30335;SDS011;17142;47.990;7.846;2024-02-26T06:13:49;0.63;;;0.50;;
30335;SDS011;17142;47.990;7.846;2024-02-26T06:16:15;0.80;;;0.70;;
30335;SDS011;17142;47.990;7.846;2024-02-26T06:18:43;0.50;;;0.50;;
30335;SDS011;17142;47.990;7.846;2024-02-26T06:21:11;1.40;;;1.10;;
30335;SDS011;17142;47.990;7.846;2024-02-26T06:23:39;0.50;;;0.50;;
30335;SDS011;17142;47.990;7.846;2024-02-26T06:26:05;1.00;;;0.87;;
30335;SDS011;17142;47.990;7.846;2024-02-26T06:28:31;1.60;;;0.70;;
30335;SDS011;17142;47.990;7.846;2024-02-26T06:30:58;0.53;;;0.50;;
30335;SDS011;17142;47.990;7.846;2024-02-26T06:33:24;0.57;;;0.50;;
30335;SDS011;17142;47.990;7.846;2024-02-26T06:35:52;0.40;;;0.30;;
30335;SDS011;17142;47.990;7.846;2024-02-26T06:38:21;0.50;;;0.50;;
30335;SDS011;17142;47.990;7.846;2024-02-26T06:40:48;0.50;;;0.43;;
30335;SDS011;17142;47.990;7.846;2024-02-26T06:43:14;0.50;;;0.50;;
30335;SDS011;17142;47.990;7.846;2024-02-26T06:45:39;0.50;;;0.50;;
30335;SDS011;17142;47.990;7.846;2024-02-26T06:48:05;0.53;;;0.53;;
30335;SDS011;17142;47.990;7.846;2024-02-26T06:50:31;0.60;;;0.60;;
30335;SDS011;17142;47.990;7.846;2024-02-26T06:52:57;2.07;;;0.70;;
30335;SDS011;17142;47.990;7.846;2024-02-26T06:55:22;1.07;;;0.77;;
30335;SDS011;17142;47.990;7.846;2024-02-26T06:57:48;0.83;;;0.83;;
30335;SDS011;17142;47.990;7.846;2024-02-26T07:00:14;0.40;;;0.40;;
30335;SDS011;17142;47.990;7.846;2024-02-26T07:02:44;0.60;;;0.50;;
30335;SDS011;17142;47.990;7.846;2024-02-26T07:05:12;0.70;;;0.57;;
30335;SDS011;17142;47.990;7.846;2024-02-26T07:07:38;1.10;;;0.40;;
30335;SDS011;17142;47.990;7.846;2024-02-26T07:10:03;0.90;;;0.60;;
30335;SDS011;17142;47.990;7.846;2024-02-26T07:12:30;0.80;;;0.50;;
30335;SDS011;17142;47.990;7.846;2024-02-26T07:14:56;0.50;;;0.50;;
30335;SDS011;17142;47.990;7.846;2024-02-26T07:17:22;0.70;;;0.70;;
30335;SDS011;17142;47.990;7.846;2024-02-26T07:19:49;0.77;;;0.50;;
30335;SDS011;17142;47.990;7.846;2024-02-26T07:22:14;0.93;;;0.90;;
30335;SDS011;17142;47.990;7.846;2024-02-26T07:24:40;1.10;;;0.60;;
30335;SDS011;17142;47.990;7.846;2024-02-26T07:27:06;0.70;;;0.70;;
30335;SDS011;17142;47.990;7.846;2024-02-26T07:29:31;0.90;;;0.80;;
30335;SDS011;17142;47.990;7.846;2024-02-26T07:31:58;2.20;;;0.50;;
30335;SDS011;17142;47.990;7.846;2024-02-26T07:34:24;0.43;;;0.43;;
30335;SDS011;17142;47.990;7.846;2024-02-26T07:36:54;0.57;;;0.57;;
30335;SDS011;17142;47.990;7.846;2024-02-26T07:39:23;0.80;;;0.50;;
30335;SDS011;17142;47.990;7.846;2024-02-26T07:41:48;0.70;;;0.70;;
30335;SDS011;17142;47.990;7.846;2024-02-26T07:44:16;1.47;;;1.00;;
30335;SDS011;17142;47.990;7.846;2024-02-26T07:46:42;6.10;;;1.30;;
30335;SDS011;17142;47.990;7.846;2024-02-26T07:49:10;0.80;;;0.80;;
30335;SDS011;17142;47.990;7.846;2024-02-26T07:51:36;0.80;;;0.60;;
30335;SDS011;17142;47.990;7.846;2024-02-26T07:54:01;1.00;;;0.63;;
30335;SDS011;17142;47.990;7.846;2024-02-26T07:56:27;1.23;;;0.80;;
30335;SDS011;17142;47.990;7.846;2024-02-26T07:58:55;5.70;;;1.10;;
30335;SDS011;17142;47.990;7.846;2024-02-26T08:01:26;1.00;;;0.70;;
30335;SDS011;17142;47.990;7.846;2024-02-26T08:03:52;0.70;;;0.50;;
30335;SDS011;17142;47.990;7.846;2024-02-26T08:06:18;0.90;;;0.60;;
30335;SDS011;17142;47.990;7.846;2024-02-26T08:08:46;0.60;;;0.60;;
30335;SDS011;17142;47.990;7.846;2024-02-26T08:11:14;1.47;;;1.37;;
30335;SDS011;17142;47.990;7.846;2024-02-26T08:13:41;1.27;;;0.53;;
30335;SDS011;17142;47.990;7.846;2024-02-26T08:16:06;3.23;;;0.90;;
30335;SDS011;17142;47.990;7.846;2024-02-26T08:18:37;1.23;;;0.83;;
30335;SDS011;17142;47.990;7.846;2024-02-26T08:21:02;1.30;;;1.00;;
30335;SDS011;17142;47.990;7.846;2024-02-26T08:23:28;0.67;;;0.67;;
30335;SDS011;17142;47.990;7.846;2024-02-26T08:25:56;0.93;;;0.93;;
30335;SDS011;17142;47.990;7.846;2024-02-26T08:28:24;0.70;;;0.60;;
30335;SDS011;17142;47.990;7.846;2024-02-26T08:30:50;1.63;;;1.17;;
30335;SDS011;17142;47.990;7.846;2024-02-26T08:33:15;1.80;;;0.80;;
30335;SDS011;17142;47.990;7.846;2024-02-26T08:35:41;2.00;;;1.00;;
30335;SDS011;17142;47.990;7.846;2024-02-26T08:38:06;0.83;;;0.57;;
30335;SDS011;17142;47.990;7.846;2024-02-26T08:40:32;1.30;;;0.60;;
30335;SDS011;17142;47.990;7.846;2024-02-26T08:43:00;1.63;;;1.27;;
30335;SDS011;17142;47.990;7.846;2024-02-26T08:45:28;0.90;;;0.80;;
30335;SDS011;17142;47.990;7.846;2024-02-26T08:47:54;0.90;;;0.90;;
30335;SDS011;17142;47.990;7.846;2024-02-26T08:50:19;0.97;;;0.63;;
30335;SDS011;17142;47.990;7.846;2024-02-26T08:52:47;0.80;;;0.60;;
30335;SDS011;17142;47.990;7.846;2024-02-26T08:55:15;0.90;;;0.63;;
30335;SDS011;17142;47.990;7.846;2024-02-26T08:57:44;0.70;;;0.50;;
30335;SDS011;17142;47.990;7.846;2024-02-26T09:00:10;0.80;;;0.50;;
30335;SDS011;17142;47.990;7.846;2024-02-26T09:02:36;0.73;;;0.60;;
30335;SDS011;17142;47.990;7.846;2024-02-26T09:05:04;0.60;;;0.60;;
30335;SDS011;17142;47.990;7.846;2024-02-26T09:07:30;0.67;;;0.50;;
30335;SDS011;17142;47.990;7.846;2024-02-26T09:09:59;1.47;;;0.50;;
30335;SDS011;17142;47.990;7.846;2024-02-26T09:12:27;1.00;;;0.40;;
30335;SDS011;17142;47.990;7.846;2024-02-26T09:14:53;1.10;;;0.90;;
30335;SDS011;17142;47.990;7.846;2024-02-26T09:17:22;1.17;;;0.80;;
30335;SDS011;17142;47.990;7.846;2024-02-26T09:19:48;0.83;;;0.60;;
30335;SDS011;17142;47.990;7.846;2024-02-26T09:22:14;1.73;;;0.63;;
30335;SDS011;17142;47.990;7.846;2024-02-26T09:24:39;1.13;;;0.70;;
30335;SDS011;17142;47.990;7.846;2024-02-26T09:27:05;0.63;;;0.63;;
30335;SDS011;17142;47.990;7.846;2024-02-26T09:29:34;1.37;;;0.67;;
30335;SDS011;17142;47.990;7.846;2024-02-26T09:32:00;0.87;;;0.73;;
30335;SDS011;17142;47.990;7.846;2024-02-26T09:34:29;1.73;;;1.33;;
30335;SDS011;17142;47.990;7.846;2024-02-26T09:36:54;1.30;;;1.03;;
30335;SDS011;17142;47.990;7.846;2024-02-26T09:39:20;1.27;;;0.70;;
30335;SDS011;17142;47.990;7.846;2024-02-26T09:41:49;0.73;;;0.60;;
30335;SDS011;17142;47.990;7.846;2024-02-26T09:44:18;1.63;;;0.60;;
30335;SDS011;17142;47.990;7.846;2024-02-26T09:46:48;0.93;;;0.80;;
30335;SDS011;17142;47.990;7.846;2024-02-26T09:49:15;2.03;;;1.03;;
30335;SDS011;17142;47.990;7.846;2024-02-26T09:51:41;1.03;;;0.93;;
30335;SDS011;17142;47.990;7.846;2024-02-26T09:54:07;1.00;;;0.80;;
30335;SDS011;17142;47.990;7.846;2024-02-26T09:56:35;1.33;;;0.70;;
30335;SDS011;17142;47.990;7.846;2024-02-26T09:59:04;0.80;;;0.70;;
30335;SDS011;17142;47.990;7.846;2024-02-26T10:01:35;1.40;;;0.90;;
30335;SDS011;17142;47.990;7.846;2024-02-26T10:04:04;4.80;;;1.87;;
30335;SDS011;17142;47.990;7.846;2024-02-26T10:06:29;1.07;;;0.70;;
30335;SDS011;17142;47.990;7.846;2024-02-26T10:08:57;1.60;;;1.00;;
30335;SDS011;17142;47.990;7.846;2024-02-26T10:11:26;1.13;;;0.93;;
30335;SDS011;17142;47.990;7.846;2024-02-26T10:13:53;3.43;;;1.30;;
30335;SDS011;17142;47.990;7.846;2024-02-26T10:16:18;3.20;;;1.00;;
30335;SDS011;17142;47.990;7.846;2024-02-26T10:18:45;2.00;;;0.93;;
30335;SDS011;17142;47.990;7.846;2024-02-26T10:21:20;1.63;;;1.00;;
30335;SDS011;17142;47.990;7.846;2024-02-26T10:23:46;4.90;;;2.60;;
30335;SDS011;17142;47.990;7.846;2024-02-26T10:26:15;4.77;;;3.07;;
30335;SDS011;17142;47.990;7.846;2024-02-26T10:28:43;5.10;;;2.50;;
30335;SDS011;17142;47.990;7.846;2024-02-26T10:31:09;4.80;;;2.53;;
30335;SDS011;17142;47.990;7.846;2024-02-26T10:33:39;3.33;;;1.67;;
30335;SDS011;17142;47.990;7.846;2024-02-26T10:36:08;2.03;;;1.87;;
30335;SDS011;17142;47.990;7.846;2024-02-26T10:38:37;4.47;;;2.17;;
30335;SDS011;17142;47.990;7.846;2024-02-26T10:41:03;1.90;;;1.80;;
30335;SDS011;17142;47.990;7.846;2024-02-26T10:43:30;3.00;;;2.10;;
30335;SDS011;17142;47.990;7.846;2024-02-26T10:45:56;2.47;;;1.80;;
30335;SDS011;17142;47.990;7.846;2024-02-26T10:48:25;1.90;;;1.47;;
30335;SDS011;17142;47.990;7.846;2024-02-26T10:50:51;4.90;;;1.47;;
30335;SDS011;17142;47.990;7.846;2024-02-26T10:53:19;2.97;;;1.37;;
30335;SDS011;17142;47.990;7.846;2024-02-26T10:55:51;2.40;;;1.00;;
30335;SDS011;17142;47.990;7.846;2024-02-26T10:58:21;4.60;;;1.40;;
30335;SDS011;17142;47.990;7.846;2024-02-26T11:00:48;2.40;;;1.50;;
30335;SDS011;17142;47.990;7.846;2024-02-26T11:03:15;3.40;;;1.33;;
30335;SDS011;17142;47.990;7.846;2024-02-26T11:05:45;1.57;;;0.90;;
30335;SDS011;17142;47.990;7.846;2024-02-26T11:08:12;4.00;;;1.37;;
30335;SDS011;17142;47.990;7.846;2024-02-26T11:10:38;1.47;;;1.20;;
30335;SDS011;17142;47.990;7.846;2024-02-26T11:13:09;1.13;;;1.03;;
30335;SDS011;17142;47.990;7.846;2024-02-26T11:15:42;3.67;;;1.20;;
30335;SDS011;17142;47.990;7.846;2024-02-26T11:18:09;1.93;;;1.47;;
30335;SDS011;17142;47.990;7.846;2024-02-26T11:20:39;2.90;;;1.20;;
30335;SDS011;17142;47.990;7.846;2024-02-26T11:23:06;2.30;;;1.27;;
30335;SDS011;17142;47.990;7.846;2024-02-26T11:25:33;4.00;;;1.50;;
30335;SDS011;17142;47.990;7.846;2024-02-26T11:28:03;0.83;;;0.80;;
30335;SDS011;17142;47.990;7.846;2024-02-26T11:30:32;1.00;;;0.90;;
30335;SDS011;17142;47.990;7.846;2024-02-26T11:33:00;1.87;;;1.30;;
30335;SDS011;17142;47.990;7.846;2024-02-26T11:35:26;2.07;;;1.57;;
30335;SDS011;17142;47.990;7.846;2024-02-26T11:40:26;1.30;;;1.03;;
30335;SDS011;17142;47.990;7.846;2024-02-26T11:42:52;1.80;;;1.10;;
30335;SDS011;17142;47.990;7.846;2024-02-26T11:48:03;2.63;;;1.53;;
30335;SDS011;17142;47.990;7.846;2024-02-26T11:50:35;2.80;;;1.30;;
30335;SDS011;17142;47.990;7.846;2024-02-26T11:53:20;2.30;;;1.50;;
30335;SDS011;17142;47.990;7.846;2024-02-26T11:59:01;2.53;;;1.13;;
30335;SDS011;17142;47.990;7.846;2024-02-26T12:04:08;2.37;;;1.93;;
30335;SDS011;17142;47.990;7.846;2024-02-26T12:09:11;1.73;;;1.63;;
30335;SDS011;17142;47.990;7.846;2024-02-26T12:11:38;2.10;;;1.33;;
30335;SDS011;17142;47.990;7.846;2024-02-26T12:14:08;4.00;;;2.53;;
30335;SDS011;17142;47.990;7.846;2024-02-26T12:16:35;2.60;;;1.80;;
30335;SDS011;17142;47.990;7.846;2024-02-26T12:19:04;1.57;;;1.47;;
30335;SDS011;17142;47.990;7.846;2024-02-26T12:21:34;2.07;;;1.90;;
30335;SDS011;17142;47.990;7.846;2024-02-26T12:24:14;2.43;;;1.70;;
30335;SDS011;17142;47.990;7.846;2024-02-26T12:26:43;3.50;;;2.07;;
30335;SDS011;17142;47.990;7.846;2024-02-26T12:29:09;2.80;;;1.80;;
30335;SDS011;17142;47.990;7.846;2024-02-26T12:31:36;2.20;;;1.60;;
30335;SDS011;17142;47.990;7.846;2024-02-26T12:34:02;2.40;;;1.60;;
30335;SDS011;17142;47.990;7.846;2024-02-26T12:36:30;2.63;;;1.27;;
30335;SDS011;17142;47.990;7.846;2024-02-26T12:38:57;3.10;;;1.80;;
30335;SDS011;17142;47.990;7.846;2024-02-26T12:41:23;1.70;;;1.60;;
30335;SDS011;17142;47.990;7.846;2024-02-26T12:43:49;1.90;;;1.33;;
30335;SDS011;17142;47.990;7.846;2024-02-26T12:46:15;5.37;;;1.40;;
30335;SDS011;17142;47.990;7.846;2024-02-26T12:48:43;2.53;;;1.67;;
30335;SDS011;17142;47.990;7.846;2024-02-26T12:51:12;3.30;;;1.80;;
30335;SDS011;17142;47.990;7.846;2024-02-26T12:53:40;2.77;;;2.20;;
30335;SDS011;17142;47.990;7.846;2024-02-26T12:56:07;3.17;;;1.40;;
30335;SDS011;17142;47.990;7.846;2024-02-26T12:58:33;2.17;;;1.87;;
30335;SDS011;17142;47.990;7.846;2024-02-26T13:01:00;3.03;;;1.83;;
30335;SDS011;17142;47.990;7.846;2024-02-26T13:03:27;5.40;;;2.03;;
30335;SDS011;17142;47.990;7.846;2024-02-26T13:05:55;9.23;;;2.73;;
30335;SDS011;17142;47.990;7.846;2024-02-26T13:08:21;6.23;;;2.30;;
30335;SDS011;17142;47.990;7.846;2024-02-26T13:10:49;2.60;;;1.53;;
30335;SDS011;17142;47.990;7.846;2024-02-26T13:13:20;1.70;;;1.30;;
30335;SDS011;17142;47.990;7.846;2024-02-26T13:15:47;1.83;;;1.23;;
30335;SDS011;17142;47.990;7.846;2024-02-26T13:18:14;6.33;;;1.70;;
30335;SDS011;17142;47.990;7.846;2024-02-26T13:20:40;5.37;;;2.37;;
30335;SDS011;17142;47.990;7.846;2024-02-26T13:23:08;2.20;;;1.60;;
30335;SDS011;17142;47.990;7.846;2024-02-26T13:25:39;4.00;;;1.70;;
30335;SDS011;17142;47.990;7.846;2024-02-26T13:28:17;1.67;;;0.93;;
30335;SDS011;17142;47.990;7.846;2024-02-26T13:30:51;4.97;;;1.57;;
30335;SDS011;17142;47.990;7.846;2024-02-26T13:33:17;2.20;;;1.60;;
30335;SDS011;17142;47.990;7.846;2024-02-26T13:35:44;3.37;;;1.70;;
30335;SDS011;17142;47.990;7.846;2024-02-26T13:38:10;1.40;;;1.10;;
30335;SDS011;17142;47.990;7.846;2024-02-26T13:40:38;1.93;;;0.97;;
30335;SDS011;17142;47.990;7.846;2024-02-26T13:43:09;1.60;;;1.50;;
30335;SDS011;17142;47.990;7.846;2024-02-26T13:45:39;1.50;;;1.40;;
30335;SDS011;17142;47.990;7.846;2024-02-26T13:48:05;1.60;;;1.37;;
30335;SDS011;17142;47.990;7.846;2024-02-26T13:50:34;4.40;;;1.87;;
30335;SDS011;17142;47.990;7.846;2024-02-26T13:53:00;1.67;;;1.30;;
30335;SDS011;17142;47.990;7.846;2024-02-26T13:55:26;1.60;;;1.50;;
30335;SDS011;17142;47.990;7.846;2024-02-26T13:57:56;1.50;;;0.90;;
30335;SDS011;17142;47.990;7.846;2024-02-26T14:00:29;1.30;;;1.20;;
30335;SDS011;17142;47.990;7.846;2024-02-26T14:02:58;1.97;;;1.57;;
30335;SDS011;17142;47.990;7.846;2024-02-26T14:05:25;1.40;;;1.30;;
30335;SDS011;17142;47.990;7.846;2024-02-26T14:07:52;1.20;;;1.10;;
30335;SDS011;17142;47.990;7.846;2024-02-26T14:10:18;1.87;;;1.67;;
30335;SDS011;17142;47.990;7.846;2024-02-26T14:12:46;4.37;;;1.40;;
30335;SDS011;17142;47.990;7.846;2024-02-26T14:15:11;1.30;;;1.20;;
30335;SDS011;17142;47.990;7.846;2024-02-26T14:17:37;3.53;;;1.60;;
30335;SDS011;17142;47.990;7.846;2024-02-26T14:20:03;1.27;;;1.07;;
30335;SDS011;17142;47.990;7.846;2024-02-26T14:22:29;2.10;;;1.00;;
30335;SDS011;17142;47.990;7.846;2024-02-26T14:24:59;2.93;;;1.73;;
30335;SDS011;17142;47.990;7.846;2024-02-26T14:27:27;1.97;;;1.30;;
30335;SDS011;17142;47.990;7.846;2024-02-26T14:29:53;1.83;;;0.93;;
30335;SDS011;17142;47.990;7.846;2024-02-26T14:32:21;1.77;;;0.97;;
30335;SDS011;17142;47.990;7.846;2024-02-26T14:34:47;1.20;;;1.10;;
30335;SDS011;17142;47.990;7.846;2024-02-26T14:37:12;1.63;;;1.53;;
30335;SDS011;17142;47.990;7.846;2024-02-26T14:39:40;6.33;;;1.57;;
30335;SDS011;17142;47.990;7.846;2024-02-26T14:42:06;2.33;;;1.27;;
30335;SDS011;17142;47.990;7.846;2024-02-26T14:44:31;4.97;;;1.20;;
30335;SDS011;17142;47.990;7.846;2024-02-26T14:46:57;1.10;;;1.00;;
30335;SDS011;17142;47.990;7.846;2024-02-26T14:49:23;1.57;;;1.40;;
30335;SDS011;17142;47.990;7.846;2024-02-26T14:51:49;1.40;;;1.30;;
30335;SDS011;17142;47.990;7.846;2024-02-26T14:54:14;1.97;;;1.30;;
30335;SDS011;17142;47.990;7.846;2024-02-26T14:56:40;1.10;;;1.00;;
30335;SDS011;17142;47.990;7.846;2024-02-26T14:59:08;3.30;;;1.53;;
30335;SDS011;17142;47.990;7.846;2024-02-26T15:01:34;2.40;;;1.17;;